Time;durP1;ratioP1;P1;durP2;ratioP2;P2;SDS_P1;SDS_P2;PMS_P1;PMS_P2;Temp;Humidity;BMP_temperature;BMP_pressure;BME280_temperature;BME280_humidity;BME280_pressure;Samples;Min_cycle;Max_cycle;Signal;HPM_P1;HPM_P2
2022/11/10 00:00:39;;;;;;;11.30;2.43;;;;;9.80;101267.00;;;;10459436;28;20191;-79
2022/11/10 00:06:04;;;;;;;9.23;2.13;;;;;9.70;101277.00;;;;10439134;28;20276;-80
2022/11/10 00:11:24;;;;;;;6.67;2.23;;;;;9.70;101294.00;;;;10441009;28;20201;-79
2022/11/10 00:17:00;;;;;;;12.10;2.40;;;;;9.60;101297.00;;;;10469286;28;20192;-80
2022/11/10 00:22:20;;;;;;;15.27;3.60;;;;;9.60;101286.00;;;;10457524;28;20210;-79
2022/11/10 00:27:44;;;;;;;7.10;1.93;;;;;9.60;101302.00;;;;10463578;28;20205;-80
2022/11/10 00:33:06;;;;;;;12.13;2.50;;;;;9.70;101310.00;;;;10472656;28;20268;-79
2022/11/10 00:38:26;;;;;;;6.23;2.37;;;;;9.70;101310.00;;;;10435268;28;20205;-80
2022/11/10 00:43:47;;;;;;;10.47;2.23;;;;;9.70;101312.00;;;;10443745;28;20561;-79
2022/11/10 00:49:08;;;;;;;11.63;2.83;;;;;9.70;101322.00;;;;10438517;28;20284;-80
2022/11/10 00:54:29;;;;;;;6.37;2.50;;;;;9.70;101326.00;;;;10427867;28;20185;-80
2022/11/10 00:59:49;;;;;;;13.00;2.60;;;;;9.70;101326.00;;;;10459764;28;20254;-79
2022/11/10 01:05:10;;;;;;;12.63;2.83;;;;;9.70;101330.00;;;;10458277;28;20229;-79
2022/11/10 01:10:30;;;;;;;17.20;2.90;;;;;9.80;101325.00;;;;10447569;28;20185;-79
2022/11/10 01:15:51;;;;;;;14.43;2.60;;;;;10.00;101324.00;;;;10430904;28;20212;-80
2022/11/10 01:21:11;;;;;;;9.47;2.63;;;;;10.20;101333.00;;;;10470071;28;20190;-80
2022/11/10 01:26:32;;;;;;;12.20;2.40;;;;;10.20;101336.00;;;;10427105;28;20198;-80
2022/11/10 01:31:52;;;;;;;15.80;2.73;;;;;10.20;101344.00;;;;10479343;28;20220;-79
2022/11/10 01:37:13;;;;;;;8.77;2.60;;;;;10.00;101345.00;;;;10422872;28;20282;-79
2022/11/10 01:43:03;;;;;;;8.93;2.43;;;;;9.90;101344.00;;;;10433567;28;20681;-80
2022/11/10 01:48:43;;;;;;;13.20;2.27;;;;;9.80;101343.00;;;;10422778;28;20202;-79
2022/11/10 01:54:09;;;;;;;11.93;2.40;;;;;9.80;101355.00;;;;10429598;28;20663;-80
2022/11/10 01:59:34;;;;;;;7.73;2.80;;;;;9.90;101369.00;;;;10444055;28;20202;-80
2022/11/10 02:04:54;;;;;;;14.80;2.67;;;;;10.10;101365.00;;;;10462600;28;20240;-78
2022/11/10 02:10:18;;;;;;;9.33;2.53;;;;;10.10;101364.00;;;;10455249;28;20200;-79
2022/11/10 02:15:39;;;;;;;7.80;2.30;;;;;10.10;101366.00;;;;10456447;28;20182;-79
2022/11/10 02:21:08;;;;;;;12.90;2.73;;;;;10.00;101366.00;;;;10451270;28;20279;-79
2022/11/10 02:26:29;;;;;;;7.40;2.17;;;;;9.90;101369.00;;;;10427765;28;20826;-79
2022/11/10 02:31:49;;;;;;;7.50;2.43;;;;;9.80;101359.00;;;;10458275;28;20193;-79
2022/11/10 02:37:10;;;;;;;11.57;2.53;;;;;9.70;101371.00;;;;10435132;28;20194;-78
2022/11/10 02:42:30;;;;;;;11.67;2.40;;;;;9.70;101369.00;;;;10455692;28;20592;-78
2022/11/10 02:47:51;;;;;;;6.80;2.03;;;;;9.60;101373.00;;;;10461336;28;20779;-79
2022/11/10 02:53:11;;;;;;;11.27;2.10;;;;;9.60;101378.00;;;;10452257;28;20178;-78
2022/11/10 02:58:32;;;;;;;4.90;2.00;;;;;9.50;101393.00;;;;10458273;28;20325;-79
2022/11/10 03:03:53;;;;;;;8.63;2.13;;;;;9.40;101394.00;;;;10451890;28;20312;-78
2022/11/10 03:09:13;;;;;;;12.13;1.90;;;;;9.40;101414.00;;;;10441507;28;20572;-78
2022/11/10 03:14:33;;;;;;;6.70;1.80;;;;;9.40;101421.00;;;;10464798;28;20185;-78
2022/11/10 03:19:54;;;;;;;7.90;2.33;;;;;9.40;101421.00;;;;10441803;28;20664;-79
2022/11/10 03:25:14;;;;;;;12.97;2.33;;;;;9.40;101423.00;;;;10466134;28;20688;-78
2022/11/10 03:30:34;;;;;;;12.17;2.00;;;;;9.40;101437.00;;;;10444511;28;20205;-78
2022/11/10 03:35:55;;;;;;;12.70;2.87;;;;;9.30;101450.00;;;;10443561;28;20656;-78
2022/11/10 03:41:16;;;;;;;6.00;2.10;;;;;9.30;101466.00;;;;10453590;28;20193;-78
2022/11/10 03:46:40;;;;;;;14.93;2.20;;;;;9.30;101477.00;;;;10449634;28;20563;-78
2022/11/10 03:52:03;;;;;;;13.60;2.63;;;;;9.20;101487.00;;;;10438887;28;20199;-78
2022/11/10 03:57:23;;;;;;;7.17;1.93;;;;;9.10;101489.00;;;;10448077;28;20264;-78
2022/11/10 04:02:44;;;;;;;16.87;2.20;;;;;9.20;101494.00;;;;10470930;28;20198;-78
2022/11/10 04:19:30;;;;;;;11.83;2.47;;;;;9.30;101515.00;;;;10453703;28;20201;-78
2022/11/10 04:24:51;;;;;;;7.00;2.23;;;;;9.20;101507.00;;;;10458655;28;20239;-78
2022/11/10 04:30:11;;;;;;;7.97;2.30;;;;;9.20;101506.00;;;;10463641;28;20196;-78
2022/11/10 04:35:32;;;;;;;9.90;2.20;;;;;9.20;101525.00;;;;10458306;28;20644;-78
2022/11/10 04:40:52;;;;;;;7.43;2.03;;;;;9.20;101543.00;;;;10436220;28;20280;-78
2022/11/10 04:46:30;;;;;;;6.47;2.07;;;;;9.10;101539.00;;;;10432346;28;20950;-78
2022/11/10 04:51:50;;;;;;;12.13;2.33;;;;;9.10;101547.00;;;;10467679;28;20196;-78
2022/11/10 04:57:11;;;;;;;9.80;2.63;;;;;9.10;101555.00;;;;10465038;28;20316;-79
2022/11/10 05:02:32;;;;;;;9.90;2.63;;;;;9.10;101554.00;;;;10481112;28;20275;-78
2022/11/10 05:07:59;;;;;;;13.87;2.83;;;;;9.10;101552.00;;;;10447794;28;20304;-78
2022/11/10 05:13:19;;;;;;;12.10;2.73;;;;;9.10;101557.00;;;;10461484;28;20227;-78
2022/11/10 05:18:41;;;;;;;11.00;2.20;;;;;9.10;101554.00;;;;10432119;28;20197;-78
2022/11/10 05:24:01;;;;;;;10.97;3.50;;;;;9.10;101566.00;;;;10416194;28;20326;-78
2022/11/10 05:29:22;;;;;;;10.60;2.57;;;;;9.20;101567.00;;;;10447061;28;20275;-78
2022/11/10 05:34:42;;;;;;;8.17;2.20;;;;;9.10;101570.00;;;;10446742;28;20186;-78
2022/11/10 05:40:03;;;;;;;9.93;2.07;;;;;9.10;101577.00;;;;10448403;28;20192;-78
2022/11/10 05:45:26;;;;;;;12.90;3.20;;;;;9.10;101577.00;;;;10473642;28;20208;-78
2022/11/10 05:50:47;;;;;;;9.53;2.30;;;;;9.00;101583.00;;;;10432395;28;20197;-79
2022/11/10 05:56:07;;;;;;;6.87;1.87;;;;;9.00;101584.00;;;;10437508;28;20201;-80
2022/11/10 06:01:28;;;;;;;8.47;2.57;;;;;9.00;101590.00;;;;10426428;28;20255;-79
2022/11/10 06:06:48;;;;;;;8.03;2.47;;;;;9.00;101590.00;;;;10414715;28;20214;-80
2022/11/10 06:12:09;;;;;;;11.20;2.17;;;;;9.00;101612.00;;;;10457091;28;20719;-80
2022/11/10 06:17:29;;;;;;;10.67;2.40;;;;;8.80;101618.00;;;;10436932;28;20197;-79
2022/11/10 06:23:01;;;;;;;8.17;3.20;;;;;8.70;101634.00;;;;10440847;28;20209;-79
2022/11/10 06:28:22;;;;;;;10.77;2.90;;;;;8.60;101638.00;;;;10425936;28;20203;-80
2022/11/10 06:33:42;;;;;;;12.43;2.70;;;;;8.60;101651.00;;;;10489204;28;20185;-79
2022/11/10 06:39:02;;;;;;;12.60;2.47;;;;;8.60;101661.00;;;;10484882;28;20197;-79
2022/11/10 06:44:23;;;;;;;9.83;2.03;;;;;8.70;101673.00;;;;10428810;28;20360;-79
2022/11/10 06:49:43;;;;;;;12.00;2.43;;;;;8.70;101667.00;;;;10472008;28;20193;-79
2022/11/10 06:55:04;;;;;;;7.00;2.50;;;;;8.60;101674.00;;;;10471977;28;20193;-79
2022/11/10 07:00:27;;;;;;;9.00;2.20;;;;;8.60;101681.00;;;;10436360;28;20322;-79
2022/11/10 07:05:47;;;;;;;7.53;2.53;;;;;8.60;101682.00;;;;10458046;28;20225;-79
2022/11/10 07:11:07;;;;;;;14.53;3.50;;;;;8.50;101699.00;;;;10474268;28;20189;-79
2022/11/10 07:16:29;;;;;;;13.77;2.27;;;;;8.50;101697.00;;;;10432265;28;20639;-79
2022/11/10 07:21:50;;;;;;;14.73;3.07;;;;;8.50;101711.00;;;;10448035;28;20211;-79
2022/11/10 07:27:11;;;;;;;19.97;3.40;;;;;8.70;101716.00;;;;10464813;28;20336;-79
2022/11/10 07:32:31;;;;;;;7.60;3.67;;;;;8.90;101730.00;;;;10457651;28;20190;-79
2022/11/10 07:37:52;;;;;;;8.90;2.57;;;;;9.00;101739.00;;;;10480617;28;20261;-79
2022/11/10 07:43:13;;;;;;;11.67;3.47;;;;;9.30;101749.00;;;;10453639;28;20212;-78
2022/11/10 07:48:33;;;;;;;12.73;3.13;;;;;9.50;101742.00;;;;10431229;28;20200;-78
2022/11/10 07:53:53;;;;;;;13.03;2.80;;;;;9.60;101761.00;;;;10462844;28;20185;-79
2022/11/10 07:59:14;;;;;;;9.77;2.30;;;;;9.80;101759.00;;;;10459581;28;20206;-78
2022/11/10 08:04:34;;;;;;;9.43;2.17;;;;;10.00;101754.00;;;;10445625;28;20302;-79
2022/11/10 08:09:55;;;;;;;11.67;3.37;;;;;10.20;101770.00;;;;10445664;28;20267;-79
2022/11/10 08:15:16;;;;;;;13.00;2.80;;;;;10.40;101772.00;;;;10425084;28;20232;-78
2022/11/10 08:20:37;;;;;;;11.80;2.53;;;;;10.50;101770.00;;;;10448456;28;20657;-79
2022/11/10 08:25:58;;;;;;;15.07;3.50;;;;;10.80;101782.00;;;;10444722;28;20234;-78
2022/11/10 08:31:19;;;;;;;13.70;3.10;;;;;11.20;101789.00;;;;10456721;28;20197;-79
2022/11/10 08:36:39;;;;;;;15.57;2.80;;;;;11.70;101798.00;;;;10462052;28;20184;-78
2022/11/10 08:42:00;;;;;;;13.83;2.57;;;;;12.10;101793.00;;;;10436128;28;20213;-79
2022/11/10 08:47:21;;;;;;;10.83;2.57;;;;;12.40;101798.00;;;;10448155;28;20217;-80
2022/11/10 08:52:41;;;;;;;10.30;2.90;;;;;12.80;101798.00;;;;10454919;28;20195;-79
2022/11/10 08:58:03;;;;;;;8.30;2.57;;;;;13.00;101819.00;;;;10441141;28;20845;-79
2022/11/10 09:03:24;;;;;;;10.07;2.40;;;;;13.30;101823.00;;;;10468371;28;20206;-79
2022/11/10 09:08:46;;;;;;;9.30;2.72;;;;;13.60;101836.00;;;;10429353;28;20280;-79
2022/11/10 09:14:06;;;;;;;12.05;3.33;;;;;13.80;101856.00;;;;10466778;28;20186;-79
2022/11/10 09:19:27;;;;;;;9.35;3.00;;;;;14.00;101860.00;;;;10457915;28;20273;-79
2022/11/10 09:24:48;;;;;;;11.32;2.80;;;;;14.20;101864.00;;;;10446248;28;20757;-79
2022/11/10 09:30:09;;;;;;;9.65;3.13;;;;;14.20;101874.00;;;;10446878;28;20198;-80
2022/11/10 09:35:37;;;;;;;11.30;2.97;;;;;14.20;101874.00;;;;10463012;28;20186;-80
2022/11/10 09:41:05;;;;;;;11.00;2.70;;;;;14.30;101882.00;;;;10459925;28;20667;-79
2022/11/10 09:46:56;;;;;;;6.32;2.10;;;;;14.40;101878.00;;;;10454589;28;20202;-78
2022/11/10 09:52:20;;;;;;;9.63;2.72;;;;;14.60;101870.00;;;;10453937;28;20703;-80
2022/11/10 09:57:42;;;;;;;7.13;2.53;;;;;14.80;101858.00;;;;10433427;28;21004;-79
2022/11/10 10:03:16;;;;;;;10.32;2.60;;;;;15.00;101875.00;;;;10449616;28;20213;-79
2022/11/10 10:08:42;;;;;;;9.15;2.50;;;;;15.30;101871.00;;;;10475207;28;20657;-79
2022/11/10 10:14:22;;;;;;;10.73;2.15;;;;;15.60;101873.00;;;;10434720;28;20186;-79
2022/11/10 10:19:48;;;;;;;11.95;2.15;;;;;15.90;101878.00;;;;10457762;28;20186;-79
2022/11/10 10:25:26;;;;;;;9.20;2.63;;;;;16.30;101878.00;;;;10462483;28;20295;-79
2022/11/10 10:30:47;;;;;;;7.05;2.00;;;;;16.60;101890.00;;;;10453828;28;20267;-79
2022/11/10 10:36:21;;;;;;;6.28;1.65;;;;;16.70;101903.00;;;;10455063;28;20266;-78
2022/11/10 10:41:44;;;;;;;8.15;1.60;;;;;17.00;101905.00;;;;10432309;28;20202;-79
2022/11/10 10:47:05;;;;;;;6.47;2.10;;;;;17.40;101917.00;;;;10445913;28;20206;-79
2022/11/10 10:52:26;;;;;;;6.60;1.77;;;;;17.70;101919.00;;;;10443077;28;20224;-78
2022/11/10 10:57:54;;;;;;;5.93;1.77;;;;;17.40;101925.00;;;;10479014;28;20185;-78
2022/11/10 11:03:28;;;;;;;8.80;1.83;;;;;17.10;101941.00;;;;10457171;28;20213;-79
2022/11/10 11:09:14;;;;;;;5.25;1.60;;;;;17.10;101947.00;;;;10460599;28;20200;-78
2022/11/10 11:14:34;;;;;;;4.57;1.65;;;;;17.40;101956.00;;;;10467335;28;20217;-79
2022/11/10 11:19:55;;;;;;;7.30;1.92;;;;;17.20;101959.00;;;;10431842;28;20243;-79
2022/11/10 11:25:33;;;;;;;11.13;2.03;;;;;16.70;101957.00;;;;10434156;28;20214;-78
2022/11/10 11:31:08;;;;;;;7.25;2.17;;;;;16.90;101946.00;;;;10415528;28;20561;-79
2022/11/10 11:36:51;;;;;;;8.82;2.22;;;;;17.50;101946.00;;;;10483301;28;20197;-79
2022/11/10 11:42:33;;;;;;;6.20;2.00;;;;;16.80;101954.00;;;;10468601;28;20194;-78
2022/11/10 11:48:12;;;;;;;6.13;1.90;;;;;17.00;101969.00;;;;10483330;28;20196;-79
2022/11/10 11:54:00;;;;;;;5.20;1.83;;;;;17.30;101977.00;;;;10447740;28;20194;-79
2022/11/10 11:59:54;;;;;;;5.97;2.13;;;;;17.50;101975.00;;;;10475637;28;20196;-79
2022/11/10 12:05:35;;;;;;;5.05;1.67;;;;;17.90;101973.00;;;;10462001;28;20225;-79
2022/11/10 12:11:16;;;;;;;8.13;2.00;;;;;18.40;101982.00;;;;10424234;28;20179;-79
2022/11/10 12:16:44;;;;;;;8.50;1.83;;;;;18.30;101998.00;;;;10428920;28;20200;-79
2022/11/10 12:22:34;;;;;;;7.57;2.17;;;;;18.00;101997.00;;;;10447574;28;20210;-79
2022/11/10 12:28:17;;;;;;;4.93;1.60;;;;;17.40;101993.00;;;;10437220;28;20188;-79
2022/11/10 12:33:44;;;;;;;5.07;1.50;;;;;17.70;101992.00;;;;10459590;28;20232;-79
2022/11/10 12:39:37;;;;;;;4.32;1.80;;;;;18.10;101992.00;;;;10439378;28;20240;-78
2022/11/10 12:45:06;;;;;;;5.05;1.85;;;;;18.40;101987.00;;;;10452160;28;20209;-79
2022/11/10 12:50:52;;;;;;;8.25;1.95;;;;;18.50;102007.00;;;;10456369;28;20344;-79
2022/11/10 12:56:38;;;;;;;5.55;2.00;;;;;18.10;102004.00;;;;10441689;28;20190;-79
2022/11/10 13:02:19;;;;;;;7.72;1.80;;;;;17.80;102004.00;;;;10416083;28;20197;-79
2022/11/10 13:07:41;;;;;;;4.45;1.63;;;;;17.70;102010.00;;;;10445865;28;20231;-79
2022/11/10 13:13:05;;;;;;;2.83;1.65;;;;;17.60;102014.00;;;;10452820;28;20177;-79
2022/11/10 13:18:31;;;;;;;4.85;1.17;;;;;17.70;102019.00;;;;10475599;28;20193;-78
2022/11/10 13:23:51;;;;;;;2.92;1.20;;;;;17.50;102006.00;;;;10442416;28;20565;-78
2022/11/10 13:29:52;;;;;;;3.00;1.05;;;;;17.20;102000.00;;;;10454983;28;20193;-78
2022/11/10 13:35:28;;;;;;;3.42;1.13;;;;;17.00;102011.00;;;;10422468;28;20909;-78
2022/11/10 13:40:49;;;;;;;3.55;1.25;;;;;17.10;102018.00;;;;10420456;28;20194;-78
2022/11/10 13:46:09;;;;;;;2.45;0.85;;;;;17.20;102009.00;;;;10445106;28;20690;-78
2022/11/10 13:52:05;;;;;;;3.03;1.00;;;;;16.90;101998.00;;;;10467704;28;20671;-78
2022/11/10 13:57:38;;;;;;;3.92;1.00;;;;;16.90;101991.00;;;;10453481;28;20244;-78
2022/11/10 14:03:01;;;;;;;4.90;1.10;;;;;17.20;101984.00;;;;10456535;28;20196;-78
2022/11/10 14:08:26;;;;;;;3.67;1.30;;;;;17.90;101980.00;;;;10466897;28;20209;-78
2022/11/10 14:13:58;;;;;;;5.18;1.08;;;;;18.10;101993.00;;;;10487761;28;20177;-78
2022/11/10 14:19:30;;;;;;;6.72;1.23;;;;;17.60;102000.00;;;;10436358;28;20182;-78
2022/11/10 14:24:58;;;;;;;3.83;1.42;;;;;16.90;102007.00;;;;10465597;28;20213;-79
2022/11/10 14:30:24;;;;;;;3.53;1.48;;;;;16.30;102012.00;;;;10486149;28;20195;-78
2022/11/10 14:35:52;;;;;;;5.28;1.70;;;;;16.00;102011.00;;;;10447025;28;20197;-78
2022/11/10 14:41:17;;;;;;;4.25;1.50;;;;;15.70;102015.00;;;;10464706;28;20204;-78
2022/11/10 14:46:37;;;;;;;7.57;1.70;;;;;15.60;102011.00;;;;10475822;28;20201;-79
2022/11/10 14:51:59;;;;;;;5.05;1.90;;;;;15.30;102003.00;;;;10468849;28;20682;-79
2022/11/10 14:57:19;;;;;;;3.63;1.17;;;;;15.10;102005.00;;;;10457696;28;20190;-78
2022/11/10 15:02:40;;;;;;;6.77;1.80;;;;;14.90;101992.00;;;;10431633;28;20186;-78
2022/11/10 15:08:03;;;;;;;4.85;1.30;;;;;14.90;102005.00;;;;10447757;28;20261;-78
2022/11/10 15:13:27;;;;;;;4.82;1.40;;;;;14.70;102006.00;;;;10483408;28;20190;-79
2022/11/10 15:18:49;;;;;;;3.17;0.98;;;;;14.40;102014.00;;;;10436594;28;20186;-78
2022/11/10 15:24:10;;;;;;;7.82;1.58;;;;;14.20;102029.00;;;;10454790;28;20220;-78
2022/11/10 15:29:32;;;;;;;5.37;1.63;;;;;14.00;102040.00;;;;10474246;28;20193;-78
2022/11/10 15:35:09;;;;;;;5.90;1.70;;;;;13.80;102059.00;;;;10448183;28;20204;-78
2022/11/10 15:40:34;;;;;;;4.90;2.10;;;;;13.60;102053.00;;;;10497904;28;20198;-78
2022/11/10 15:46:08;;;;;;;6.33;1.70;;;;;13.40;102058.00;;;;10469475;28;20197;-79
2022/11/10 15:51:34;;;;;;;8.27;2.23;;;;;13.10;102065.00;;;;10430442;28;20252;-79
2022/11/10 15:56:54;;;;;;;6.97;1.90;;;;;12.90;102064.00;;;;10459506;28;20189;-77
2022/11/10 16:02:19;;;;;;;8.20;1.83;;;;;12.80;102063.00;;;;10426292;28;20186;-77
2022/11/10 16:07:39;;;;;;;5.27;2.27;;;;;12.60;102067.00;;;;10432017;28;20228;-78
2022/11/10 16:13:00;;;;;;;9.67;2.70;;;;;12.50;102068.00;;;;10463229;28;20668;-78
2022/11/10 16:18:23;;;;;;;4.80;1.90;;;;;12.30;102078.00;;;;10453903;28;20197;-77
2022/11/10 16:23:45;;;;;;;5.63;2.00;;;;;12.30;102091.00;;;;10468481;28;20193;-78
2022/11/10 16:29:14;;;;;;;4.93;1.97;;;;;12.20;102080.00;;;;10467786;28;20211;-77
2022/11/10 16:34:34;;;;;;;4.63;1.83;;;;;12.00;102083.00;;;;10473398;28;20236;-78
2022/11/10 16:39:55;;;;;;;8.03;2.13;;;;;12.00;102087.00;;;;10427514;28;20183;-77
2022/11/10 16:45:22;;;;;;;6.07;1.80;;;;;11.90;102097.00;;;;10477663;28;20284;-78
2022/11/10 16:50:44;;;;;;;5.57;1.70;;;;;11.70;102107.00;;;;10455054;28;20564;-77
2022/11/10 16:56:06;;;;;;;2.50;1.70;;;;;11.60;102107.00;;;;10464457;28;20186;-77
2022/11/10 17:01:28;;;;;;;6.23;2.27;;;;;11.50;102107.00;;;;10497278;28;20186;-77
2022/11/10 17:06:50;;;;;;;10.30;2.53;;;;;11.50;102107.00;;;;10433754;28;20217;-77
2022/11/10 17:12:12;;;;;;;8.57;2.33;;;;;11.40;102119.00;;;;10450280;28;20202;-77
2022/11/10 17:17:34;;;;;;;6.93;2.50;;;;;11.40;102117.00;;;;10424889;28;20892;-77
2022/11/10 17:22:55;;;;;;;7.70;2.77;;;;;11.30;102113.00;;;;10450663;28;20213;-77
2022/11/10 17:28:17;;;;;;;7.17;2.90;;;;;11.20;102130.00;;;;10451065;28;20217;-78
2022/11/10 17:33:38;;;;;;;6.17;2.53;;;;;11.10;102139.00;;;;10422650;28;20204;-77
2022/11/10 17:38:58;;;;;;;5.60;2.87;;;;;11.10;102129.00;;;;10473928;28;20189;-77
2022/11/10 17:44:19;;;;;;;8.57;3.70;;;;;11.10;102131.00;;;;10466988;28;20200;-77
2022/11/10 17:49:40;;;;;;;11.87;3.40;;;;;11.00;102122.00;;;;10443216;28;20217;-77
2022/11/10 17:55:01;;;;;;;9.30;3.60;;;;;10.90;102139.00;;;;10452317;28;20898;-78
2022/11/10 18:00:22;;;;;;;4.33;2.97;;;;;10.90;102144.00;;;;10462739;28;20197;-78
2022/11/10 18:05:43;;;;;;;7.77;3.23;;;;;10.80;102154.00;;;;10483975;28;20203;-77
2022/11/10 18:11:03;;;;;;;8.27;3.67;;;;;10.70;102161.00;;;;10459843;28;20203;-77
2022/11/10 18:16:24;;;;;;;6.67;3.70;;;;;10.60;102170.00;;;;10428831;28;20194;-76
2022/11/10 18:21:44;;;;;;;8.80;4.17;;;;;10.50;102177.00;;;;10443246;28;20236;-77
2022/11/10 18:27:05;;;;;;;8.93;3.70;;;;;10.50;102171.00;;;;10462429;28;20292;-77
2022/11/10 18:32:26;;;;;;;7.03;3.90;;;;;10.40;102159.00;;;;10451607;28;20186;-77
2022/11/10 18:37:46;;;;;;;6.97;3.83;;;;;10.40;102164.00;;;;10419560;28;20627;-78
2022/11/10 18:43:07;;;;;;;9.30;4.67;;;;;10.40;102169.00;;;;10455636;28;20189;-78
2022/11/10 18:48:27;;;;;;;6.03;4.20;;;;;10.40;102160.00;;;;10440744;28;20296;-77
2022/11/10 18:53:55;;;;;;;6.03;4.53;;;;;10.40;102149.00;;;;10430736;28;20233;-77
2022/11/10 18:59:16;;;;;;;10.30;5.60;;;;;10.30;102149.00;;;;10459550;28;20801;-77
2022/11/10 19:04:36;;;;;;;6.37;4.37;;;;;10.30;102149.00;;;;10443162;28;20220;-77
2022/11/10 19:09:58;;;;;;;9.53;5.50;;;;;10.30;102162.00;;;;10491978;28;20211;-77
2022/11/10 19:15:19;;;;;;;10.20;4.57;;;;;10.30;102165.00;;;;10451473;28;20552;-77
2022/11/10 19:20:40;;;;;;;7.87;4.67;;;;;10.30;102162.00;;;;10475817;28;20185;-77
2022/11/10 19:26:13;;;;;;;9.63;4.67;;;;;10.20;102161.00;;;;10459425;28;20221;-77
2022/11/10 19:31:42;;;;;;;8.57;4.17;;;;;10.20;102157.00;;;;10439530;28;20210;-77
2022/11/10 19:37:03;;;;;;;8.00;4.63;;;;;10.20;102146.00;;;;10467890;28;20182;-77
2022/11/10 19:42:23;;;;;;;8.57;4.13;;;;;10.10;102174.00;;;;10450782;28;20224;-77
2022/11/10 19:47:43;;;;;;;8.93;4.47;;;;;10.10;102175.00;;;;10482548;28;20240;-77
2022/11/10 19:53:04;;;;;;;9.20;3.53;;;;;10.10;102188.00;;;;10501875;28;20272;-77
2022/11/10 19:58:24;;;;;;;12.50;5.57;;;;;9.90;102194.00;;;;10467597;28;20185;-77
2022/11/10 20:03:45;;;;;;;8.20;4.53;;;;;9.80;102201.00;;;;10445400;28;20339;-77
2022/11/10 20:09:06;;;;;;;7.33;4.40;;;;;9.70;102191.00;;;;10467351;28;20640;-77
2022/11/10 20:14:27;;;;;;;9.93;4.77;;;;;9.60;102200.00;;;;10455094;28;20185;-77
2022/11/10 20:19:47;;;;;;;10.00;4.93;;;;;9.60;102195.00;;;;10443682;28;20205;-77
2022/11/10 20:25:08;;;;;;;9.13;4.50;;;;;9.70;102200.00;;;;10433404;28;20557;-77
2022/11/10 20:30:29;;;;;;;6.80;4.27;;;;;9.70;102207.00;;;;10458770;28;20679;-77
2022/11/10 20:35:49;;;;;;;7.87;4.90;;;;;9.70;102226.00;;;;10461912;28;20653;-76
2022/11/10 20:41:13;;;;;;;11.40;5.23;;;;;9.60;102244.00;;;;10472111;28;20189;-77
2022/11/10 20:46:35;;;;;;;12.30;6.47;;;;;9.50;102243.00;;;;10485230;28;20201;-77
2022/11/10 20:52:16;;;;;;;10.40;5.03;;;;;9.40;102245.00;;;;10479735;28;20188;-77
2022/11/10 20:57:36;;;;;;;11.10;5.13;;;;;9.40;102249.00;;;;10465570;28;20586;-77
2022/11/10 21:02:56;;;;;;;8.30;5.27;;;;;9.40;102242.00;;;;10498587;28;20582;-77
2022/11/10 21:08:17;;;;;;;10.13;6.10;;;;;9.30;102231.00;;;;10451097;28;20292;-77
2022/11/10 21:13:38;;;;;;;7.17;5.57;;;;;9.20;102224.00;;;;10453373;28;20185;-77
2022/11/10 21:18:59;;;;;;;12.57;5.43;;;;;9.20;102247.00;;;;10445513;28;20185;-77
2022/11/10 21:24:20;;;;;;;11.60;5.83;;;;;9.10;102242.00;;;;10496778;28;20228;-77
2022/11/10 21:29:41;;;;;;;12.03;6.20;;;;;9.10;102249.00;;;;10446936;28;20193;-77
2022/11/10 21:35:01;;;;;;;14.17;6.10;;;;;9.00;102254.00;;;;10480494;28;20259;-77
2022/11/10 21:40:22;;;;;;;11.03;6.17;;;;;9.00;102242.00;;;;10464904;28;20231;-77
2022/11/10 21:45:42;;;;;;;13.37;7.20;;;;;8.90;102257.00;;;;10495584;28;20194;-77
2022/11/10 21:51:05;;;;;;;12.80;6.57;;;;;8.80;102274.00;;;;10463634;28;20193;-77
2022/11/10 21:56:25;;;;;;;15.80;7.87;;;;;8.80;102289.00;;;;10477428;28;20552;-77
2022/11/10 22:01:46;;;;;;;9.63;6.57;;;;;8.80;102280.00;;;;10463030;28;20184;-77
2022/11/10 22:07:23;;;;;;;11.73;6.97;;;;;8.90;102286.00;;;;10478000;28;20239;-77
2022/11/10 22:18:38;;;;;;;10.90;6.17;;;;;8.70;102297.00;;;;10443944;28;20190;-77
2022/11/10 22:29:38;;;;;;;9.47;6.73;;;;;8.70;102310.00;;;;10419230;28;20289;-77
2022/11/10 22:34:58;;;;;;;11.13;7.30;;;;;8.80;102313.00;;;;10477499;28;20181;-77
2022/11/10 22:45:58;;;;;;;14.83;8.67;;;;;9.00;102317.00;;;;10477687;28;20209;-76
2022/11/10 22:51:18;;;;;;;11.93;7.73;;;;;9.10;102334.00;;;;10477004;28;20197;-77
2022/11/10 22:56:40;;;;;;;17.10;9.47;;;;;9.10;102349.00;;;;10462726;28;20178;-77
2022/11/10 23:02:00;;;;;;;16.23;9.90;;;;;9.20;102364.00;;;;10459333;28;20191;-77
2022/11/10 23:07:21;;;;;;;12.27;8.93;;;;;9.30;102357.00;;;;10461979;28;20684;-77
2022/11/10 23:12:41;;;;;;;12.37;8.47;;;;;9.40;102361.00;;;;10436909;28;20198;-77
2022/11/10 23:18:02;;;;;;;14.43;9.10;;;;;9.40;102361.00;;;;10503424;28;20196;-77
2022/11/10 23:23:27;;;;;;;14.63;9.13;;;;;9.50;102356.00;;;;10471303;28;20194;-77
2022/11/10 23:28:48;;;;;;;17.20;8.60;;;;;9.50;102376.00;;;;10470422;28;20209;-77
2022/11/10 23:34:08;;;;;;;12.17;8.57;;;;;9.50;102397.00;;;;10475190;28;20194;-77
2022/11/10 23:39:29;;;;;;;12.30;8.30;;;;;9.60;102388.00;;;;10445494;28;20186;-77
2022/11/10 23:44:50;;;;;;;11.87;8.00;;;;;9.60;102383.00;;;;10457313;28;20254;-77
2022/11/10 23:50:10;;;;;;;16.30;8.23;;;;;9.60;102373.00;;;;10501262;28;20517;-77
2022/11/10 23:55:30;;;;;;;12.87;8.67;;;;;9.60;102377.00;;;;10469006;28;20181;-78
